sensor_id;sensor_type;location;lat;lon;timestamp;temperature;humidity
49777;DHT22;35673;51.482;7.436;2023-04-06T00:02:07;4.90;65.80
49777;DHT22;35673;51.482;7.436;2023-04-06T00:04:33;5.00;66.10
49777;DHT22;35673;51.482;7.436;2023-04-06T00:06:58;5.00;65.90
49777;DHT22;35673;51.482;7.436;2023-04-06T00:09:24;5.00;66.00
49777;DHT22;35673;51.482;7.436;2023-04-06T00:11:50;5.10;66.00
49777;DHT22;35673;51.482;7.436;2023-04-06T00:14:15;5.10;65.70
49777;DHT22;35673;51.482;7.436;2023-04-06T00:16:42;5.00;65.80
49777;DHT22;35673;51.482;7.436;2023-04-06T00:19:08;5.00;65.70
49777;DHT22;35673;51.482;7.436;2023-04-06T00:21:33;5.10;66.00
49777;DHT22;35673;51.482;7.436;2023-04-06T00:23:59;5.10;66.30
49777;DHT22;35673;51.482;7.436;2023-04-06T00:26:24;5.10;67.10
49777;DHT22;35673;51.482;7.436;2023-04-06T00:28:50;5.00;67.70
49777;DHT22;35673;51.482;7.436;2023-04-06T00:31:17;5.00;67.70
49777;DHT22;35673;51.482;7.436;2023-04-06T00:33:43;4.80;67.90
49777;DHT22;35673;51.482;7.436;2023-04-06T00:36:08;5.00;68.10
49777;DHT22;35673;51.482;7.436;2023-04-06T00:38:34;4.90;67.90
49777;DHT22;35673;51.482;7.436;2023-04-06T00:40:59;4.90;68.10
49777;DHT22;35673;51.482;7.436;2023-04-06T00:43:25;4.80;68.30
49777;DHT22;35673;51.482;7.436;2023-04-06T00:45:51;4.80;69.00
49777;DHT22;35673;51.482;7.436;2023-04-06T00:48:16;4.70;68.90
49777;DHT22;35673;51.482;7.436;2023-04-06T00:50:42;4.70;69.10
49777;DHT22;35673;51.482;7.436;2023-04-06T00:53:07;4.80;69.00
49777;DHT22;35673;51.482;7.436;2023-04-06T00:55:33;4.80;69.00
49777;DHT22;35673;51.482;7.436;2023-04-06T00:58:01;4.70;68.80
49777;DHT22;35673;51.482;7.436;2023-04-06T01:00:27;4.70;69.30
49777;DHT22;35673;51.482;7.436;2023-04-06T01:02:52;4.50;69.40
49777;DHT22;35673;51.482;7.436;2023-04-06T01:05:18;4.60;69.90
49777;DHT22;35673;51.482;7.436;2023-04-06T01:07:44;4.60;70.30
49777;DHT22;35673;51.482;7.436;2023-04-06T01:10:09;4.70;70.60
49777;DHT22;35673;51.482;7.436;2023-04-06T01:12:35;4.60;71.70
49777;DHT22;35673;51.482;7.436;2023-04-06T01:15:02;4.70;71.20
49777;DHT22;35673;51.482;7.436;2023-04-06T01:17:28;4.60;71.00
49777;DHT22;35673;51.482;7.436;2023-04-06T01:19:54;4.70;70.90
49777;DHT22;35673;51.482;7.436;2023-04-06T01:22:19;4.60;70.50
49777;DHT22;35673;51.482;7.436;2023-04-06T01:24:45;4.60;70.40
49777;DHT22;35673;51.482;7.436;2023-04-06T01:27:11;4.70;70.10
49777;DHT22;35673;51.482;7.436;2023-04-06T01:29:37;4.70;70.10
49777;DHT22;35673;51.482;7.436;2023-04-06T01:32:06;4.70;69.90
49777;DHT22;35673;51.482;7.436;2023-04-06T01:34:31;4.50;69.50
49777;DHT22;35673;51.482;7.436;2023-04-06T01:36:57;4.70;69.30
49777;DHT22;35673;51.482;7.436;2023-04-06T01:39:23;4.70;69.20
49777;DHT22;35673;51.482;7.436;2023-04-06T01:41:48;4.70;69.20
49777;DHT22;35673;51.482;7.436;2023-04-06T01:44:17;4.70;69.00
49777;DHT22;35673;51.482;7.436;2023-04-06T01:46:44;4.70;68.90
49777;DHT22;35673;51.482;7.436;2023-04-06T01:49:09;4.60;68.60
49777;DHT22;35673;51.482;7.436;2023-04-06T01:51:35;4.50;68.60
49777;DHT22;35673;51.482;7.436;2023-04-06T01:54:00;4.70;68.30
49777;DHT22;35673;51.482;7.436;2023-04-06T01:56:26;4.60;68.20
49777;DHT22;35673;51.482;7.436;2023-04-06T01:58:51;4.60;68.10
49777;DHT22;35673;51.482;7.436;2023-04-06T02:01:17;4.60;68.00
49777;DHT22;35673;51.482;7.436;2023-04-06T02:03:42;4.60;67.80
49777;DHT22;35673;51.482;7.436;2023-04-06T02:06:08;4.60;67.80
49777;DHT22;35673;51.482;7.436;2023-04-06T02:08:34;4.70;67.30
49777;DHT22;35673;51.482;7.436;2023-04-06T02:10:59;4.70;67.40
49777;DHT22;35673;51.482;7.436;2023-04-06T02:13:25;4.70;67.40
49777;DHT22;35673;51.482;7.436;2023-04-06T02:15:50;4.70;67.00
49777;DHT22;35673;51.482;7.436;2023-04-06T02:18:16;4.60;67.00
49777;DHT22;35673;51.482;7.436;2023-04-06T02:20:43;4.60;67.10
49777;DHT22;35673;51.482;7.436;2023-04-06T02:23:09;4.60;66.70
49777;DHT22;35673;51.482;7.436;2023-04-06T02:25:35;4.70;66.70
49777;DHT22;35673;51.482;7.436;2023-04-06T02:28:01;4.70;66.80
49777;DHT22;35673;51.482;7.436;2023-04-06T02:30:26;4.70;66.60
49777;DHT22;35673;51.482;7.436;2023-04-06T02:32:52;4.70;66.20
49777;DHT22;35673;51.482;7.436;2023-04-06T02:35:17;4.70;66.00
49777;DHT22;35673;51.482;7.436;2023-04-06T02:37:43;4.70;66.00
49777;DHT22;35673;51.482;7.436;2023-04-06T02:40:09;4.60;65.80
49777;DHT22;35673;51.482;7.436;2023-04-06T02:42:35;4.70;65.70
49777;DHT22;35673;51.482;7.436;2023-04-06T02:45:00;4.70;65.50
49777;DHT22;35673;51.482;7.436;2023-04-06T02:47:26;4.70;65.20
49777;DHT22;35673;51.482;7.436;2023-04-06T02:49:51;4.70;65.10
49777;DHT22;35673;51.482;7.436;2023-04-06T02:52:17;4.70;65.00
49777;DHT22;35673;51.482;7.436;2023-04-06T02:54:43;4.70;65.00
49777;DHT22;35673;51.482;7.436;2023-04-06T02:57:08;4.70;65.00
49777;DHT22;35673;51.482;7.436;2023-04-06T02:59:34;4.70;65.10
49777;DHT22;35673;51.482;7.436;2023-04-06T03:02:00;4.70;65.20
49777;DHT22;35673;51.482;7.436;2023-04-06T03:04:25;4.70;65.20
49777;DHT22;35673;51.482;7.436;2023-04-06T03:06:51;4.70;65.10
49777;DHT22;35673;51.482;7.436;2023-04-06T03:09:17;4.80;65.10
49777;DHT22;35673;51.482;7.436;2023-04-06T03:11:42;4.70;65.30
49777;DHT22;35673;51.482;7.436;2023-04-06T03:14:08;4.60;65.40
49777;DHT22;35673;51.482;7.436;2023-04-06T03:16:33;4.60;65.60
49777;DHT22;35673;51.482;7.436;2023-04-06T03:18:59;4.60;65.50
49777;DHT22;35673;51.482;7.436;2023-04-06T03:21:25;4.60;65.50
49777;DHT22;35673;51.482;7.436;2023-04-06T03:23:50;4.60;65.70
49777;DHT22;35673;51.482;7.436;2023-04-06T03:26:16;4.60;65.90
49777;DHT22;35673;51.482;7.436;2023-04-06T03:28:42;4.60;65.60
49777;DHT22;35673;51.482;7.436;2023-04-06T03:31:07;4.50;65.70
49777;DHT22;35673;51.482;7.436;2023-04-06T03:33:33;4.50;65.60
49777;DHT22;35673;51.482;7.436;2023-04-06T03:35:58;4.50;65.40
49777;DHT22;35673;51.482;7.436;2023-04-06T03:38:24;4.50;65.50
49777;DHT22;35673;51.482;7.436;2023-04-06T03:40:50;4.50;65.40
49777;DHT22;35673;51.482;7.436;2023-04-06T03:43:15;4.50;65.50
49777;DHT22;35673;51.482;7.436;2023-04-06T03:45:41;4.50;65.40
49777;DHT22;35673;51.482;7.436;2023-04-06T03:48:06;4.50;65.50
49777;DHT22;35673;51.482;7.436;2023-04-06T03:50:32;4.50;65.40
49777;DHT22;35673;51.482;7.436;2023-04-06T03:52:57;4.50;65.70
49777;DHT22;35673;51.482;7.436;2023-04-06T03:55:23;4.50;65.50
49777;DHT22;35673;51.482;7.436;2023-04-06T03:57:49;4.50;65.80
49777;DHT22;35673;51.482;7.436;2023-04-06T04:00:14;4.40;65.80
49777;DHT22;35673;51.482;7.436;2023-04-06T04:02:40;4.40;66.60
49777;DHT22;35673;51.482;7.436;2023-04-06T04:05:06;4.50;66.10
49777;DHT22;35673;51.482;7.436;2023-04-06T04:07:31;4.40;66.20
49777;DHT22;35673;51.482;7.436;2023-04-06T04:09:57;4.30;66.40
49777;DHT22;35673;51.482;7.436;2023-04-06T04:12:22;4.30;66.50
49777;DHT22;35673;51.482;7.436;2023-04-06T04:14:48;4.40;66.50
49777;DHT22;35673;51.482;7.436;2023-04-06T04:17:14;4.30;66.50
49777;DHT22;35673;51.482;7.436;2023-04-06T04:19:39;4.30;66.40
49777;DHT22;35673;51.482;7.436;2023-04-06T04:22:05;4.30;66.50
49777;DHT22;35673;51.482;7.436;2023-04-06T04:24:31;4.40;66.30
49777;DHT22;35673;51.482;7.436;2023-04-06T04:26:57;4.40;65.60
49777;DHT22;35673;51.482;7.436;2023-04-06T04:29:22;4.40;65.50
49777;DHT22;35673;51.482;7.436;2023-04-06T04:31:48;4.50;64.60
49777;DHT22;35673;51.482;7.436;2023-04-06T04:34:14;4.50;64.60
49777;DHT22;35673;51.482;7.436;2023-04-06T04:36:40;4.50;64.40
49777;DHT22;35673;51.482;7.436;2023-04-06T04:39:07;4.50;64.00
49777;DHT22;35673;51.482;7.436;2023-04-06T04:41:33;4.60;64.00
49777;DHT22;35673;51.482;7.436;2023-04-06T04:43:58;4.50;64.20
49777;DHT22;35673;51.482;7.436;2023-04-06T04:46:24;4.50;64.30
49777;DHT22;35673;51.482;7.436;2023-04-06T04:48:49;4.50;64.30
49777;DHT22;35673;51.482;7.436;2023-04-06T04:51:15;4.50;64.30
49777;DHT22;35673;51.482;7.436;2023-04-06T04:53:40;4.50;64.20
49777;DHT22;35673;51.482;7.436;2023-04-06T04:56:06;4.50;63.90
49777;DHT22;35673;51.482;7.436;2023-04-06T04:58:31;4.50;64.30
49777;DHT22;35673;51.482;7.436;2023-04-06T05:00:57;4.50;64.00
49777;DHT22;35673;51.482;7.436;2023-04-06T05:03:23;4.50;63.40
49777;DHT22;35673;51.482;7.436;2023-04-06T05:05:49;4.60;63.90
49777;DHT22;35673;51.482;7.436;2023-04-06T05:08:15;4.50;63.30
49777;DHT22;35673;51.482;7.436;2023-04-06T05:10:41;4.50;63.10
49777;DHT22;35673;51.482;7.436;2023-04-06T05:13:07;4.50;63.80
49777;DHT22;35673;51.482;7.436;2023-04-06T05:15:33;4.50;63.50
49777;DHT22;35673;51.482;7.436;2023-04-06T05:20:48;4.50;63.40
49777;DHT22;35673;51.482;7.436;2023-04-06T05:23:15;4.50;62.80
49777;DHT22;35673;51.482;7.436;2023-04-06T05:25:40;4.60;62.50
49777;DHT22;35673;51.482;7.436;2023-04-06T05:28:06;4.60;62.10
49777;DHT22;35673;51.482;7.436;2023-04-06T05:30:31;4.70;62.30
49777;DHT22;35673;51.482;7.436;2023-04-06T05:32:57;4.70;62.60
49777;DHT22;35673;51.482;7.436;2023-04-06T05:35:23;4.70;63.10
49777;DHT22;35673;51.482;7.436;2023-04-06T05:37:49;4.80;62.60
49777;DHT22;35673;51.482;7.436;2023-04-06T05:40:15;4.80;62.30
49777;DHT22;35673;51.482;7.436;2023-04-06T05:42:41;4.80;61.70
49777;DHT22;35673;51.482;7.436;2023-04-06T05:45:08;4.90;61.50
49777;DHT22;35673;51.482;7.436;2023-04-06T05:47:46;4.90;61.20
49777;DHT22;35673;51.482;7.436;2023-04-06T05:50:12;5.00;61.00
49777;DHT22;35673;51.482;7.436;2023-04-06T05:52:37;5.00;61.10
49777;DHT22;35673;51.482;7.436;2023-04-06T05:55:03;5.10;61.00
49777;DHT22;35673;51.482;7.436;2023-04-06T05:57:29;5.10;60.80
49777;DHT22;35673;51.482;7.436;2023-04-06T05:59:54;5.20;60.80
49777;DHT22;35673;51.482;7.436;2023-04-06T06:02:20;5.20;60.40
49777;DHT22;35673;51.482;7.436;2023-04-06T06:04:46;5.30;60.10
49777;DHT22;35673;51.482;7.436;2023-04-06T06:07:12;5.30;60.20
49777;DHT22;35673;51.482;7.436;2023-04-06T06:09:37;5.40;59.80
49777;DHT22;35673;51.482;7.436;2023-04-06T06:12:03;5.40;60.00
49777;DHT22;35673;51.482;7.436;2023-04-06T06:14:29;5.50;60.10
49777;DHT22;35673;51.482;7.436;2023-04-06T06:16:55;5.60;60.00
49777;DHT22;35673;51.482;7.436;2023-04-06T06:19:24;5.60;59.70
49777;DHT22;35673;51.482;7.436;2023-04-06T06:21:49;5.70;59.40
49777;DHT22;35673;51.482;7.436;2023-04-06T06:24:15;5.80;59.20
49777;DHT22;35673;51.482;7.436;2023-04-06T06:26:44;5.80;58.90
49777;DHT22;35673;51.482;7.436;2023-04-06T06:29:17;5.90;59.30
49777;DHT22;35673;51.482;7.436;2023-04-06T06:31:46;5.90;58.90
49777;DHT22;35673;51.482;7.436;2023-04-06T06:34:12;6.00;59.00
49777;DHT22;35673;51.482;7.436;2023-04-06T06:36:38;6.10;59.10
49777;DHT22;35673;51.482;7.436;2023-04-06T06:39:03;6.10;58.90
49777;DHT22;35673;51.482;7.436;2023-04-06T06:41:29;6.20;58.90
49777;DHT22;35673;51.482;7.436;2023-04-06T06:43:55;6.20;58.50
49777;DHT22;35673;51.482;7.436;2023-04-06T06:46:20;6.30;58.70
49777;DHT22;35673;51.482;7.436;2023-04-06T06:48:46;6.40;58.70
49777;DHT22;35673;51.482;7.436;2023-04-06T06:51:12;6.50;58.40
49777;DHT22;35673;51.482;7.436;2023-04-06T06:53:37;6.60;58.00
49777;DHT22;35673;51.482;7.436;2023-04-06T06:56:03;6.70;57.70
49777;DHT22;35673;51.482;7.436;2023-04-06T06:58:28;6.80;57.80
49777;DHT22;35673;51.482;7.436;2023-04-06T07:00:58;7.00;57.70
49777;DHT22;35673;51.482;7.436;2023-04-06T07:03:24;7.10;57.40
49777;DHT22;35673;51.482;7.436;2023-04-06T07:05:49;7.10;57.30
49777;DHT22;35673;51.482;7.436;2023-04-06T07:08:19;7.10;56.80
49777;DHT22;35673;51.482;7.436;2023-04-06T07:10:44;7.20;56.90
49777;DHT22;35673;51.482;7.436;2023-04-06T07:13:10;7.40;56.90
49777;DHT22;35673;51.482;7.436;2023-04-06T07:15:35;7.50;56.40
49777;DHT22;35673;51.482;7.436;2023-04-06T07:18:02;7.60;56.30
49777;DHT22;35673;51.482;7.436;2023-04-06T07:20:27;7.90;55.80
49777;DHT22;35673;51.482;7.436;2023-04-06T07:22:53;7.90;56.40
49777;DHT22;35673;51.482;7.436;2023-04-06T07:25:19;8.00;56.40
49777;DHT22;35673;51.482;7.436;2023-04-06T07:27:44;8.20;57.40
49777;DHT22;35673;51.482;7.436;2023-04-06T07:30:10;8.40;58.60
49777;DHT22;35673;51.482;7.436;2023-04-06T07:32:36;8.40;58.40
49777;DHT22;35673;51.482;7.436;2023-04-06T07:35:02;8.30;58.00
49777;DHT22;35673;51.482;7.436;2023-04-06T07:37:27;8.50;58.00
49777;DHT22;35673;51.482;7.436;2023-04-06T07:39:53;8.80;59.10
49777;DHT22;35673;51.482;7.436;2023-04-06T07:42:19;8.90;58.30
49777;DHT22;35673;51.482;7.436;2023-04-06T07:44:44;9.10;57.90
49777;DHT22;35673;51.482;7.436;2023-04-06T07:47:10;9.30;57.50
49777;DHT22;35673;51.482;7.436;2023-04-06T07:49:35;9.40;56.00
49777;DHT22;35673;51.482;7.436;2023-04-06T07:52:01;9.50;55.30
49777;DHT22;35673;51.482;7.436;2023-04-06T07:54:28;9.70;54.50
49777;DHT22;35673;51.482;7.436;2023-04-06T07:56:53;9.90;53.90
49777;DHT22;35673;51.482;7.436;2023-04-06T07:59:19;10.20;53.50
49777;DHT22;35673;51.482;7.436;2023-04-06T08:01:45;10.20;53.20
49777;DHT22;35673;51.482;7.436;2023-04-06T08:04:10;10.30;53.30
49777;DHT22;35673;51.482;7.436;2023-04-06T08:06:36;10.40;53.10
49777;DHT22;35673;51.482;7.436;2023-04-06T08:09:02;10.60;52.80
49777;DHT22;35673;51.482;7.436;2023-04-06T08:11:28;10.80;52.60
49777;DHT22;35673;51.482;7.436;2023-04-06T08:13:54;10.90;52.40
49777;DHT22;35673;51.482;7.436;2023-04-06T08:16:20;11.10;52.20
49777;DHT22;35673;51.482;7.436;2023-04-06T08:18:46;11.20;52.50
49777;DHT22;35673;51.482;7.436;2023-04-06T08:21:12;11.20;52.00
49777;DHT22;35673;51.482;7.436;2023-04-06T08:23:37;11.30;52.00
49777;DHT22;35673;51.482;7.436;2023-04-06T08:26:03;11.20;51.80
49777;DHT22;35673;51.482;7.436;2023-04-06T08:28:28;11.50;51.70
49777;DHT22;35673;51.482;7.436;2023-04-06T08:30:54;11.80;51.30
49777;DHT22;35673;51.482;7.436;2023-04-06T08:33:19;12.00;51.50
49777;DHT22;35673;51.482;7.436;2023-04-06T08:35:45;12.10;50.50
49777;DHT22;35673;51.482;7.436;2023-04-06T08:38:11;12.30;51.10
49777;DHT22;35673;51.482;7.436;2023-04-06T08:40:37;12.40;50.30
49777;DHT22;35673;51.482;7.436;2023-04-06T08:43:03;12.60;49.80
49777;DHT22;35673;51.482;7.436;2023-04-06T08:45:33;12.90;49.80
49777;DHT22;35673;51.482;7.436;2023-04-06T08:47:59;13.20;49.10
49777;DHT22;35673;51.482;7.436;2023-04-06T08:50:27;13.30;48.90
49777;DHT22;35673;51.482;7.436;2023-04-06T08:52:54;13.60;49.00
49777;DHT22;35673;51.482;7.436;2023-04-06T08:55:20;13.50;48.80
49777;DHT22;35673;51.482;7.436;2023-04-06T08:57:47;13.90;48.10
49777;DHT22;35673;51.482;7.436;2023-04-06T09:00:14;14.20;51.10
49777;DHT22;35673;51.482;7.436;2023-04-06T09:02:39;14.50;48.10
49777;DHT22;35673;51.482;7.436;2023-04-06T09:05:07;14.20;49.10
49777;DHT22;35673;51.482;7.436;2023-04-06T09:07:33;14.60;49.90
49777;DHT22;35673;51.482;7.436;2023-04-06T09:09:58;14.80;50.20
49777;DHT22;35673;51.482;7.436;2023-04-06T09:12:28;14.70;48.80
49777;DHT22;35673;51.482;7.436;2023-04-06T09:14:54;15.20;49.30
49777;DHT22;35673;51.482;7.436;2023-04-06T09:17:27;15.60;49.20
49777;DHT22;35673;51.482;7.436;2023-04-06T09:19:53;16.30;48.90
49777;DHT22;35673;51.482;7.436;2023-04-06T09:22:19;16.70;47.80
49777;DHT22;35673;51.482;7.436;2023-04-06T09:24:46;16.80;47.90
49777;DHT22;35673;51.482;7.436;2023-04-06T09:27:12;16.70;48.80
49777;DHT22;35673;51.482;7.436;2023-04-06T09:29:38;16.40;48.00
49777;DHT22;35673;51.482;7.436;2023-04-06T09:32:04;16.40;48.10
49777;DHT22;35673;51.482;7.436;2023-04-06T09:34:30;16.10;48.60
49777;DHT22;35673;51.482;7.436;2023-04-06T09:36:56;16.30;48.60
49777;DHT22;35673;51.482;7.436;2023-04-06T09:39:22;16.20;48.50
49777;DHT22;35673;51.482;7.436;2023-04-06T09:41:51;16.10;48.80
49777;DHT22;35673;51.482;7.436;2023-04-06T09:44:17;16.10;48.90
49777;DHT22;35673;51.482;7.436;2023-04-06T09:46:44;16.10;48.00
49777;DHT22;35673;51.482;7.436;2023-04-06T09:49:10;15.90;47.90
49777;DHT22;35673;51.482;7.436;2023-04-06T09:51:40;16.10;48.40
49777;DHT22;35673;51.482;7.436;2023-04-06T09:54:06;16.00;48.90
49777;DHT22;35673;51.482;7.436;2023-04-06T09:59:18;15.70;49.40
49777;DHT22;35673;51.482;7.436;2023-04-06T10:01:46;15.50;49.90
49777;DHT22;35673;51.482;7.436;2023-04-06T10:04:21;15.20;50.70
49777;DHT22;35673;51.482;7.436;2023-04-06T10:06:47;15.30;49.20
49777;DHT22;35673;51.482;7.436;2023-04-06T10:09:18;15.40;50.00
49777;DHT22;35673;51.482;7.436;2023-04-06T10:11:44;15.30;51.30
49777;DHT22;35673;51.482;7.436;2023-04-06T10:14:09;15.10;52.80
49777;DHT22;35673;51.482;7.436;2023-04-06T10:16:37;14.90;52.90
49777;DHT22;35673;51.482;7.436;2023-04-06T10:19:06;14.60;51.10
49777;DHT22;35673;51.482;7.436;2023-04-06T10:21:35;14.60;52.20
49777;DHT22;35673;51.482;7.436;2023-04-06T10:24:01;14.40;51.60
49777;DHT22;35673;51.482;7.436;2023-04-06T10:26:27;14.40;52.10
49777;DHT22;35673;51.482;7.436;2023-04-06T10:28:53;14.30;51.70
49777;DHT22;35673;51.482;7.436;2023-04-06T10:31:26;14.30;51.80
49777;DHT22;35673;51.482;7.436;2023-04-06T10:33:56;14.40;50.90
49777;DHT22;35673;51.482;7.436;2023-04-06T10:36:23;14.30;50.50
49777;DHT22;35673;51.482;7.436;2023-04-06T10:38:53;14.70;50.10
49777;DHT22;35673;51.482;7.436;2023-04-06T10:41:19;14.80;50.50
49777;DHT22;35673;51.482;7.436;2023-04-06T10:43:45;14.70;50.60
49777;DHT22;35673;51.482;7.436;2023-04-06T10:46:24;14.80;50.20
49777;DHT22;35673;51.482;7.436;2023-04-06T10:48:49;14.70;49.20
49777;DHT22;35673;51.482;7.436;2023-04-06T10:51:16;14.90;49.30
49777;DHT22;35673;51.482;7.436;2023-04-06T10:53:43;15.40;50.20
49777;DHT22;35673;51.482;7.436;2023-04-06T10:56:12;15.40;49.30
49777;DHT22;35673;51.482;7.436;2023-04-06T10:58:38;15.80;49.00
49777;DHT22;35673;51.482;7.436;2023-04-06T11:01:08;15.90;49.20
49777;DHT22;35673;51.482;7.436;2023-04-06T11:03:43;16.10;48.20
49777;DHT22;35673;51.482;7.436;2023-04-06T11:06:08;16.60;49.30
49777;DHT22;35673;51.482;7.436;2023-04-06T11:08:34;16.70;48.70
49777;DHT22;35673;51.482;7.436;2023-04-06T11:11:05;16.50;47.90
49777;DHT22;35673;51.482;7.436;2023-04-06T11:13:38;16.60;45.80
49777;DHT22;35673;51.482;7.436;2023-04-06T11:16:04;16.70;48.50
49777;DHT22;35673;51.482;7.436;2023-04-06T11:18:31;16.50;49.00
49777;DHT22;35673;51.482;7.436;2023-04-06T11:20:56;16.10;49.60
49777;DHT22;35673;51.482;7.436;2023-04-06T11:23:25;16.20;47.90
49777;DHT22;35673;51.482;7.436;2023-04-06T11:25:51;16.40;47.20
49777;DHT22;35673;51.482;7.436;2023-04-06T11:28:17;16.80;46.70
49777;DHT22;35673;51.482;7.436;2023-04-06T11:30:43;16.90;46.80
49777;DHT22;35673;51.482;7.436;2023-04-06T11:33:08;16.80;46.20
49777;DHT22;35673;51.482;7.436;2023-04-06T11:35:34;17.20;46.30
49777;DHT22;35673;51.482;7.436;2023-04-06T11:38:02;17.30;46.40
49777;DHT22;35673;51.482;7.436;2023-04-06T11:40:28;17.50;46.80
49777;DHT22;35673;51.482;7.436;2023-04-06T11:42:55;17.40;46.00
49777;DHT22;35673;51.482;7.436;2023-04-06T11:45:21;17.20;46.10
49777;DHT22;35673;51.482;7.436;2023-04-06T11:47:54;17.00;46.70
49777;DHT22;35673;51.482;7.436;2023-04-06T11:50:20;17.20;46.00
49777;DHT22;35673;51.482;7.436;2023-04-06T11:52:46;16.70;47.20
49777;DHT22;35673;51.482;7.436;2023-04-06T11:55:22;16.40;48.60
49777;DHT22;35673;51.482;7.436;2023-04-06T11:57:48;16.30;48.40
49777;DHT22;35673;51.482;7.436;2023-04-06T12:00:15;16.30;46.40
49777;DHT22;35673;51.482;7.436;2023-04-06T12:02:44;16.50;47.60
49777;DHT22;35673;51.482;7.436;2023-04-06T12:05:10;16.40;49.00
49777;DHT22;35673;51.482;7.436;2023-04-06T12:07:36;16.70;47.60
49777;DHT22;35673;51.482;7.436;2023-04-06T12:10:02;17.00;46.80
49777;DHT22;35673;51.482;7.436;2023-04-06T12:12:28;17.10;47.80
49777;DHT22;35673;51.482;7.436;2023-04-06T12:14:54;16.60;48.50
49777;DHT22;35673;51.482;7.436;2023-04-06T12:17:20;16.50;48.10
49777;DHT22;35673;51.482;7.436;2023-04-06T12:19:46;16.30;48.40
49777;DHT22;35673;51.482;7.436;2023-04-06T12:22:11;16.60;49.10
49777;DHT22;35673;51.482;7.436;2023-04-06T12:24:37;16.30;47.80
49777;DHT22;35673;51.482;7.436;2023-04-06T12:27:02;16.50;47.60
49777;DHT22;35673;51.482;7.436;2023-04-06T12:29:28;16.90;46.20
49777;DHT22;35673;51.482;7.436;2023-04-06T12:31:54;17.40;46.20
49777;DHT22;35673;51.482;7.436;2023-04-06T12:34:19;17.70;45.90
49777;DHT22;35673;51.482;7.436;2023-04-06T12:36:45;17.60;46.40
49777;DHT22;35673;51.482;7.436;2023-04-06T12:39:10;17.50;46.40
49777;DHT22;35673;51.482;7.436;2023-04-06T12:41:36;17.50;47.00
49777;DHT22;35673;51.482;7.436;2023-04-06T12:44:02;17.90;45.00
49777;DHT22;35673;51.482;7.436;2023-04-06T12:46:28;18.20;47.50
49777;DHT22;35673;51.482;7.436;2023-04-06T12:48:57;17.50;48.60
49777;DHT22;35673;51.482;7.436;2023-04-06T12:51:24;17.30;47.40
49777;DHT22;35673;51.482;7.436;2023-04-06T12:53:53;17.20;46.90
49777;DHT22;35673;51.482;7.436;2023-04-06T12:56:18;16.90;46.30
49777;DHT22;35673;51.482;7.436;2023-04-06T12:58:46;17.10;46.70
49777;DHT22;35673;51.482;7.436;2023-04-06T13:01:12;16.90;47.30
49777;DHT22;35673;51.482;7.436;2023-04-06T13:03:41;16.40;47.70
49777;DHT22;35673;51.482;7.436;2023-04-06T13:06:07;16.30;48.20
49777;DHT22;35673;51.482;7.436;2023-04-06T13:08:36;16.50;47.80
49777;DHT22;35673;51.482;7.436;2023-04-06T13:11:05;16.80;47.60
49777;DHT22;35673;51.482;7.436;2023-04-06T13:13:30;16.70;48.20
49777;DHT22;35673;51.482;7.436;2023-04-06T13:16:00;16.70;48.00
49777;DHT22;35673;51.482;7.436;2023-04-06T13:18:27;17.30;47.40
49777;DHT22;35673;51.482;7.436;2023-04-06T13:20:53;17.50;47.30
49777;DHT22;35673;51.482;7.436;2023-04-06T13:23:20;17.70;47.50
49777;DHT22;35673;51.482;7.436;2023-04-06T13:25:46;17.00;47.60
49777;DHT22;35673;51.482;7.436;2023-04-06T13:28:11;16.40;48.30
49777;DHT22;35673;51.482;7.436;2023-04-06T13:30:37;16.30;48.50
49777;DHT22;35673;51.482;7.436;2023-04-06T13:33:03;15.90;49.70
49777;DHT22;35673;51.482;7.436;2023-04-06T13:35:29;15.70;50.10
49777;DHT22;35673;51.482;7.436;2023-04-06T13:37:55;15.70;50.50
49777;DHT22;35673;51.482;7.436;2023-04-06T13:40:20;15.80;49.80
49777;DHT22;35673;51.482;7.436;2023-04-06T13:42:46;15.60;49.90
49777;DHT22;35673;51.482;7.436;2023-04-06T13:45:12;15.20;47.90
49777;DHT22;35673;51.482;7.436;2023-04-06T13:47:38;15.00;48.60
49777;DHT22;35673;51.482;7.436;2023-04-06T13:50:03;15.10;48.60
49777;DHT22;35673;51.482;7.436;2023-04-06T13:52:29;15.10;48.60
49777;DHT22;35673;51.482;7.436;2023-04-06T13:54:55;14.90;48.80
49777;DHT22;35673;51.482;7.436;2023-04-06T13:57:20;14.70;52.70
49777;DHT22;35673;51.482;7.436;2023-04-06T13:59:46;14.60;52.30
49777;DHT22;35673;51.482;7.436;2023-04-06T14:02:12;14.50;52.20
49777;DHT22;35673;51.482;7.436;2023-04-06T14:04:37;14.70;51.60
49777;DHT22;35673;51.482;7.436;2023-04-06T14:07:03;14.70;51.20
49777;DHT22;35673;51.482;7.436;2023-04-06T14:09:29;14.80;51.70
49777;DHT22;35673;51.482;7.436;2023-04-06T14:11:55;15.10;51.30
49777;DHT22;35673;51.482;7.436;2023-04-06T14:14:21;15.20;49.70
49777;DHT22;35673;51.482;7.436;2023-04-06T14:16:47;15.20;50.00
49777;DHT22;35673;51.482;7.436;2023-04-06T14:19:14;15.10;51.20
49777;DHT22;35673;51.482;7.436;2023-04-06T14:21:43;14.70;51.30
49777;DHT22;35673;51.482;7.436;2023-04-06T14:24:10;14.60;51.60
49777;DHT22;35673;51.482;7.436;2023-04-06T14:26:36;14.40;51.60
49777;DHT22;35673;51.482;7.436;2023-04-06T14:29:02;14.30;51.80
49777;DHT22;35673;51.482;7.436;2023-04-06T14:31:28;14.20;50.40
49777;DHT22;35673;51.482;7.436;2023-04-06T14:33:53;14.30;51.30
49777;DHT22;35673;51.482;7.436;2023-04-06T14:36:19;14.30;50.70
49777;DHT22;35673;51.482;7.436;2023-04-06T14:38:44;14.30;51.00
49777;DHT22;35673;51.482;7.436;2023-04-06T14:41:15;14.30;51.00
49777;DHT22;35673;51.482;7.436;2023-04-06T14:43:41;14.30;51.20
49777;DHT22;35673;51.482;7.436;2023-04-06T14:46:07;14.30;52.20
49777;DHT22;35673;51.482;7.436;2023-04-06T14:48:34;14.20;52.30
49777;DHT22;35673;51.482;7.436;2023-04-06T14:50:59;14.10;52.60
49777;DHT22;35673;51.482;7.436;2023-04-06T14:53:29;14.10;52.70
49777;DHT22;35673;51.482;7.436;2023-04-06T14:55:58;14.30;52.60
49777;DHT22;35673;51.482;7.436;2023-04-06T14:58:25;14.10;52.10
49777;DHT22;35673;51.482;7.436;2023-04-06T15:00:57;14.00;52.10
49777;DHT22;35673;51.482;7.436;2023-04-06T15:03:24;14.00;51.80
49777;DHT22;35673;51.482;7.436;2023-04-06T15:05:53;14.10;51.80
49777;DHT22;35673;51.482;7.436;2023-04-06T15:08:19;14.10;52.20
49777;DHT22;35673;51.482;7.436;2023-04-06T15:10:49;14.00;52.40
49777;DHT22;35673;51.482;7.436;2023-04-06T15:13:15;13.70;52.60
49777;DHT22;35673;51.482;7.436;2023-04-06T15:15:41;13.40;53.10
49777;DHT22;35673;51.482;7.436;2023-04-06T15:18:07;13.30;53.60
49777;DHT22;35673;51.482;7.436;2023-04-06T15:20:33;13.20;54.20
49777;DHT22;35673;51.482;7.436;2023-04-06T15:22:58;13.10;54.80
49777;DHT22;35673;51.482;7.436;2023-04-06T15:25:25;13.00;55.20
49777;DHT22;35673;51.482;7.436;2023-04-06T15:27:50;12.90;55.90
49777;DHT22;35673;51.482;7.436;2023-04-06T15:33:19;13.00;56.00
49777;DHT22;35673;51.482;7.436;2023-04-06T15:35:46;12.80;57.10
49777;DHT22;35673;51.482;7.436;2023-04-06T15:38:11;12.70;58.10
49777;DHT22;35673;51.482;7.436;2023-04-06T15:40:46;12.60;58.00